Time;durP1;ratioP1;P1;durP2;ratioP2;P2;SDS_P1;SDS_P2;PMS_P1;PMS_P2;Temp;Humidity;BMP_temperature;BMP_pressure;BME280_temperature;BME280_humidity;BME280_pressure;Samples;Min_cycle;Max_cycle;Signal;HPM_P1;HPM_P2
2021/01/26 00:01:44;;;;;;;2.33;2.13;;;;;;;18.27;44.51;100203.27;;;;-48
2021/01/26 00:04:44;;;;;;;2.66;2.33;;;;;;;18.25;44.49;100200.17;;;;-48
2021/01/26 00:07:44;;;;;;;2.50;2.30;;;;;;;18.23;44.57;100206.33;;;;-48
2021/01/26 00:10:44;;;;;;;2.89;2.33;;;;;;;18.21;44.48;100208.33;;;;-48
2021/01/26 00:13:44;;;;;;;2.87;2.29;;;;;;;18.19;44.56;100209.05;;;;-49
2021/01/26 00:16:44;;;;;;;2.40;2.20;;;;;;;18.17;44.53;100207.57;;;;-48
2021/01/26 00:19:44;;;;;;;2.41;2.21;;;;;;;18.15;44.46;100210.31;;;;-49
2021/01/26 00:22:44;;;;;;;2.81;2.19;;;;;;;18.14;44.60;100211.70;;;;-48
2021/01/26 00:25:44;;;;;;;2.59;2.19;;;;;;;18.12;44.48;100209.57;;;;-49
2021/01/26 00:28:44;;;;;;;2.68;2.36;;;;;;;18.10;44.58;100209.55;;;;-50
2021/01/26 00:31:44;;;;;;;2.63;2.43;;;;;;;18.08;44.57;100215.62;;;;-49
2021/01/26 00:34:44;;;;;;;2.39;2.19;;;;;;;18.06;44.53;100219.90;;;;-49
2021/01/26 00:37:44;;;;;;;2.54;2.34;;;;;;;18.04;44.53;100217.86;;;;-48
2021/01/26 00:40:44;;;;;;;2.45;2.25;;;;;;;18.02;44.52;100218.32;;;;-48
2021/01/26 00:43:44;;;;;;;2.67;2.45;;;;;;;18.00;44.54;100217.81;;;;-48
2021/01/26 00:46:44;;;;;;;2.39;2.19;;;;;;;17.98;44.50;100217.47;;;;-49
2021/01/26 00:49:44;;;;;;;2.44;2.24;;;;;;;17.96;44.53;100218.34;;;;-49
2021/01/26 00:52:44;;;;;;;2.49;2.29;;;;;;;17.95;44.62;100220.03;;;;-48
2021/01/26 00:55:44;;;;;;;2.56;2.36;;;;;;;17.93;44.59;100217.36;;;;-50
2021/01/26 00:58:44;;;;;;;2.57;2.37;;;;;;;17.91;44.57;100219.78;;;;-50
2021/01/26 01:01:44;;;;;;;2.65;2.44;;;;;;;17.90;44.65;100224.13;;;;-48
2021/01/26 01:04:44;;;;;;;2.38;2.18;;;;;;;17.88;44.64;100225.98;;;;-50
2021/01/26 01:07:44;;;;;;;2.49;2.29;;;;;;;17.86;44.62;100234.88;;;;-49
2021/01/26 01:10:44;;;;;;;2.67;2.47;;;;;;;17.84;44.64;100235.66;;;;-48
2021/01/26 01:13:44;;;;;;;2.55;2.35;;;;;;;17.83;44.67;100236.41;;;;-48
2021/01/26 01:16:45;;;;;;;2.44;2.24;;;;;;;17.80;44.67;100236.00;;;;-48
2021/01/26 01:19:44;;;;;;;2.50;2.30;;;;;;;17.78;44.65;100240.76;;;;-49
2021/01/26 01:22:44;;;;;;;2.25;2.05;;;;;;;17.77;44.67;100238.73;;;;-49
2021/01/26 01:25:44;;;;;;;2.41;2.21;;;;;;;17.76;44.67;100233.37;;;;-48
2021/01/26 01:28:44;;;;;;;2.60;2.40;;;;;;;17.74;44.68;100231.89;;;;-49
2021/01/26 01:31:44;;;;;;;2.41;2.21;;;;;;;17.72;44.74;100231.05;;;;-48
2021/01/26 01:34:44;;;;;;;2.43;2.23;;;;;;;17.71;44.70;100235.03;;;;-49
2021/01/26 01:37:44;;;;;;;2.47;2.27;;;;;;;17.70;44.68;100226.25;;;;-48
2021/01/26 01:40:44;;;;;;;2.43;2.23;;;;;;;17.67;44.65;100223.72;;;;-48
2021/01/26 01:43:44;;;;;;;2.30;2.10;;;;;;;17.65;44.64;100220.55;;;;-50
2021/01/26 01:46:44;;;;;;;2.45;2.25;;;;;;;17.64;44.72;100220.38;;;;-50
2021/01/26 01:49:44;;;;;;;2.43;2.23;;;;;;;17.62;44.68;100218.83;;;;-48
2021/01/26 01:52:44;;;;;;;2.51;2.26;;;;;;;17.60;44.68;100221.31;;;;-49
2021/01/26 01:55:44;;;;;;;2.39;2.19;;;;;;;17.60;44.76;100224.88;;;;-49
2021/01/26 01:58:44;;;;;;;2.56;2.36;;;;;;;17.58;44.69;100225.75;;;;-49
2021/01/26 02:01:44;;;;;;;2.50;2.30;;;;;;;17.57;44.77;100226.86;;;;-48
2021/01/26 02:04:44;;;;;;;2.34;2.14;;;;;;;17.55;44.79;100226.02;;;;-48
2021/01/26 02:07:44;;;;;;;2.45;2.25;;;;;;;17.54;44.77;100231.54;;;;-48
2021/01/26 02:10:44;;;;;;;2.49;2.29;;;;;;;17.53;44.80;100225.84;;;;-48
2021/01/26 02:13:44;;;;;;;2.46;2.26;;;;;;;17.52;44.80;100226.25;;;;-48
2021/01/26 02:16:44;;;;;;;2.41;2.21;;;;;;;17.50;44.78;100221.85;;;;-48
2021/01/26 02:19:44;;;;;;;2.67;2.43;;;;;;;17.48;44.76;100219.23;;;;-48
2021/01/26 02:23:44;;;;;;;2.50;2.30;;;;;;;17.46;44.83;100214.19;;;;-50
2021/01/26 02:28:44;;;;;;;2.42;2.22;;;;;;;17.44;44.81;100219.19;;;;-48
2021/01/26 02:31:44;;;;;;;2.49;2.29;;;;;;;17.44;44.83;100222.27;;;;-48
2021/01/26 02:34:44;;;;;;;2.89;2.29;;;;;;;17.42;44.84;100221.69;;;;-49
2021/01/26 02:38:44;;;;;;;2.47;2.27;;;;;;;17.41;44.83;100228.78;;;;-48
2021/01/26 02:43:44;;;;;;;2.36;2.16;;;;;;;17.39;44.83;100234.14;;;;-49
2021/01/26 02:46:44;;;;;;;2.39;2.19;;;;;;;17.38;44.81;100235.56;;;;-49
2021/01/26 02:49:44;;;;;;;2.41;2.18;;;;;;;17.37;44.79;100238.05;;;;-49
2021/01/26 02:52:44;;;;;;;2.45;2.25;;;;;;;17.36;44.90;100243.48;;;;-50
2021/01/26 02:55:44;;;;;;;2.45;2.24;;;;;;;17.35;44.91;100248.39;;;;-48
2021/01/26 02:58:44;;;;;;;2.48;2.28;;;;;;;17.34;44.91;100251.80;;;;-48
2021/01/26 03:01:44;;;;;;;2.42;2.22;;;;;;;17.32;44.82;100258.98;;;;-49
2021/01/26 03:04:44;;;;;;;2.31;2.11;;;;;;;17.31;44.84;100265.14;;;;-48
2021/01/26 03:07:44;;;;;;;2.49;2.29;;;;;;;17.31;44.89;100263.25;;;;-48
2021/01/26 03:10:44;;;;;;;2.43;2.23;;;;;;;17.29;44.88;100267.55;;;;-49
2021/01/26 03:13:44;;;;;;;2.46;2.26;;;;;;;17.28;44.85;100270.44;;;;-50
2021/01/26 03:16:44;;;;;;;2.54;2.34;;;;;;;17.27;44.91;100275.70;;;;-49
2021/01/26 03:19:44;;;;;;;2.51;2.31;;;;;;;17.26;44.83;100280.78;;;;-48
2021/01/26 03:22:44;;;;;;;2.47;2.27;;;;;;;17.25;44.86;100286.69;;;;-49
2021/01/26 03:25:44;;;;;;;2.64;2.44;;;;;;;17.24;44.89;100280.10;;;;-49
2021/01/26 03:28:44;;;;;;;2.52;2.32;;;;;;;17.23;44.91;100285.28;;;;-49
2021/01/26 03:31:44;;;;;;;2.40;2.20;;;;;;;17.22;44.82;100285.66;;;;-50
2021/01/26 03:34:44;;;;;;;2.69;2.27;;;;;;;17.22;44.93;100284.85;;;;-50
2021/01/26 03:37:44;;;;;;;2.43;2.23;;;;;;;17.20;44.93;100284.74;;;;-48
2021/01/26 03:40:44;;;;;;;2.57;2.37;;;;;;;17.19;44.89;100288.06;;;;-50
2021/01/26 03:43:45;;;;;;;2.43;2.23;;;;;;;17.17;44.88;100282.45;;;;-49
2021/01/26 03:46:44;;;;;;;2.47;2.27;;;;;;;17.17;44.92;100283.50;;;;-49
2021/01/26 03:51:44;;;;;;;2.50;2.30;;;;;;;17.15;44.91;100287.53;;;;-49
2021/01/26 03:54:44;;;;;;;2.60;2.40;;;;;;;17.13;44.95;100275.92;;;;-48
2021/01/26 03:57:44;;;;;;;2.30;2.10;;;;;;;17.12;44.92;100275.84;;;;-49
2021/01/26 04:00:44;;;;;;;2.27;2.07;;;;;;;17.11;44.96;100276.22;;;;-50
2021/01/26 04:03:44;;;;;;;2.29;2.09;;;;;;;17.10;45.00;100273.06;;;;-49
2021/01/26 04:06:44;;;;;;;2.21;2.01;;;;;;;17.10;44.93;100277.97;;;;-49
2021/01/26 04:09:44;;;;;;;2.39;2.19;;;;;;;17.09;44.96;100282.34;;;;-48
2021/01/26 04:12:44;;;;;;;2.22;2.02;;;;;;;17.07;44.99;100280.13;;;;-48
2021/01/26 04:15:44;;;;;;;2.29;2.13;;;;;;;17.06;44.96;100276.56;;;;-49
2021/01/26 04:18:44;;;;;;;2.31;2.11;;;;;;;17.06;44.92;100282.80;;;;-48
2021/01/26 04:21:44;;;;;;;2.30;2.10;;;;;;;17.05;44.97;100284.39;;;;-50
2021/01/26 04:24:44;;;;;;;2.29;2.09;;;;;;;17.04;44.94;100287.55;;;;-48
2021/01/26 04:27:44;;;;;;;2.30;2.10;;;;;;;17.03;44.92;100281.20;;;;-50
2021/01/26 04:30:44;;;;;;;2.41;2.21;;;;;;;17.01;44.99;100283.28;;;;-50
2021/01/26 04:33:44;;;;;;;2.29;2.09;;;;;;;17.01;45.01;100290.25;;;;-49
2021/01/26 04:36:44;;;;;;;2.30;2.10;;;;;;;17.00;44.89;100302.55;;;;-49
2021/01/26 04:39:44;;;;;;;2.20;2.00;;;;;;;16.99;44.95;100309.64;;;;-49
2021/01/26 04:42:44;;;;;;;2.33;2.13;;;;;;;16.98;44.97;100313.69;;;;-48
2021/01/26 04:45:44;;;;;;;2.33;2.11;;;;;;;16.98;44.95;100310.62;;;;-49
2021/01/26 04:48:44;;;;;;;2.39;2.19;;;;;;;16.97;44.98;100306.54;;;;-49
2021/01/26 04:51:44;;;;;;;2.31;2.11;;;;;;;16.95;44.91;100313.15;;;;-50
2021/01/26 04:54:44;;;;;;;2.30;2.10;;;;;;;16.94;44.99;100310.64;;;;-49
2021/01/26 04:57:44;;;;;;;2.37;2.17;;;;;;;16.94;45.00;100313.64;;;;-49
2021/01/26 05:00:44;;;;;;;2.23;2.03;;;;;;;16.93;44.96;100315.88;;;;-48
2021/01/26 05:03:44;;;;;;;2.22;2.02;;;;;;;16.92;45.03;100317.73;;;;-48
2021/01/26 05:06:44;;;;;;;2.28;2.08;;;;;;;16.91;45.00;100321.50;;;;-48
2021/01/26 05:09:44;;;;;;;2.31;2.11;;;;;;;16.91;44.94;100316.48;;;;-48
2021/01/26 05:12:44;;;;;;;2.27;2.07;;;;;;;16.90;44.98;100318.67;;;;-50
2021/01/26 05:15:44;;;;;;;2.39;2.19;;;;;;;16.89;45.00;100319.00;;;;-49
2021/01/26 05:18:44;;;;;;;2.33;2.13;;;;;;;16.88;45.01;100318.16;;;;-48
2021/01/26 05:21:44;;;;;;;2.31;2.11;;;;;;;16.87;45.02;100316.59;;;;-50
2021/01/26 05:24:44;;;;;;;2.25;2.11;;;;;;;16.86;45.05;100312.70;;;;-48
2021/01/26 05:27:44;;;;;;;2.20;2.00;;;;;;;16.86;45.00;100317.48;;;;-48
2021/01/26 05:30:45;;;;;;;2.30;2.10;;;;;;;16.85;44.98;100316.64;;;;-48
2021/01/26 05:33:44;;;;;;;2.08;1.98;;;;;;;16.84;45.04;100317.77;;;;-48
2021/01/26 05:36:43;;;;;;;2.32;2.12;;;;;;;16.84;44.98;100310.25;;;;-48
2021/01/26 05:39:44;;;;;;;2.11;1.91;;;;;;;16.84;45.04;100314.05;;;;-50
2021/01/26 05:42:44;;;;;;;2.28;2.08;;;;;;;16.82;44.99;100313.29;;;;-48
2021/01/26 05:45:43;;;;;;;2.30;2.10;;;;;;;16.81;45.06;100316.85;;;;-49
2021/01/26 05:48:44;;;;;;;2.13;1.99;;;;;;;16.81;45.04;100313.78;;;;-49
2021/01/26 05:51:44;;;;;;;2.18;2.03;;;;;;;16.80;45.00;100315.41;;;;-48
2021/01/26 05:54:44;;;;;;;2.09;1.90;;;;;;;16.78;45.07;100316.19;;;;-48
2021/01/26 05:57:44;;;;;;;2.10;1.98;;;;;;;16.79;45.04;100324.08;;;;-48
2021/01/26 06:00:43;;;;;;;1.98;1.87;;;;;;;16.78;45.03;100322.26;;;;-50
2021/01/26 06:03:50;;;;;;;2.06;1.83;;;;;;;16.77;45.04;100319.83;;;;-48
2021/01/26 06:06:44;;;;;;;2.07;1.89;;;;;;;16.76;45.00;100323.77;;;;-49
2021/01/26 06:09:44;;;;;;;2.09;1.89;;;;;;;16.76;45.03;100329.19;;;;-49
2021/01/26 06:12:44;;;;;;;1.93;1.83;;;;;;;16.75;45.05;100344.08;;;;-50
2021/01/26 06:15:44;;;;;;;2.12;1.96;;;;;;;16.75;45.06;100359.20;;;;-48
2021/01/26 06:18:44;;;;;;;2.09;1.89;;;;;;;16.75;45.08;100361.56;;;;-48
2021/01/26 06:21:44;;;;;;;2.15;1.95;;;;;;;16.76;45.11;100367.38;;;;-48
2021/01/26 06:24:44;;;;;;;2.10;1.90;;;;;;;16.77;45.11;100372.92;;;;-48
2021/01/26 06:27:44;;;;;;;1.90;1.80;;;;;;;16.78;45.03;100378.27;;;;-50
2021/01/26 06:30:44;;;;;;;1.89;1.79;;;;;;;16.80;45.08;100377.65;;;;-50
2021/01/26 06:33:44;;;;;;;1.96;1.76;;;;;;;16.82;45.02;100382.48;;;;-48
2021/01/26 06:36:44;;;;;;;1.91;1.81;;;;;;;16.84;45.14;100382.52;;;;-49
2021/01/26 06:39:44;;;;;;;1.92;1.82;;;;;;;16.85;45.14;100381.50;;;;-49
2021/01/26 06:42:44;;;;;;;1.80;1.70;;;;;;;16.89;45.21;100380.88;;;;-49
2021/01/26 06:45:44;;;;;;;1.85;1.75;;;;;;;16.91;45.25;100382.33;;;;-49
2021/01/26 06:48:44;;;;;;;1.91;1.77;;;;;;;16.95;45.23;100386.16;;;;-48
2021/01/26 06:51:43;;;;;;;1.93;1.83;;;;;;;16.99;45.20;100386.06;;;;-49
2021/01/26 06:54:44;;;;;;;1.81;1.71;;;;;;;17.04;45.21;100380.73;;;;-48
2021/01/26 06:58:44;;;;;;;1.84;1.74;;;;;;;17.09;45.27;100380.31;;;;-58
2021/01/26 07:01:45;;;;;;;1.83;1.73;;;;;;;17.13;45.25;100382.80;;;;-58
2021/01/26 07:06:44;;;;;;;1.95;1.78;;;;;;;17.22;45.36;100384.95;;;;-61
2021/01/26 07:09:44;;;;;;;1.80;1.70;;;;;;;17.25;45.34;100388.73;;;;-61
2021/01/26 07:12:44;;;;;;;1.91;1.75;;;;;;;17.31;45.38;100391.16;;;;-62
2021/01/26 07:15:44;;;;;;;1.73;1.63;;;;;;;17.35;45.38;100389.20;;;;-62
2021/01/26 07:18:44;;;;;;;1.81;1.69;;;;;;;17.39;45.35;100389.50;;;;-58
2021/01/26 07:22:44;;;;;;;1.65;1.55;;;;;;;17.45;45.37;100392.31;;;;-61
2021/01/26 07:25:44;;;;;;;1.71;1.61;;;;;;;17.48;45.42;100397.55;;;;-59
2021/01/26 07:28:44;;;;;;;1.73;1.63;;;;;;;17.51;45.40;100405.03;;;;-58
2021/01/26 07:32:44;;;;;;;4.46;2.45;;;;;;;17.38;43.76;100407.38;;;;-59
2021/01/26 07:35:44;;;;;;;4.01;3.23;;;;;;;17.17;42.71;100407.31;;;;-52
2021/01/26 07:38:44;;;;;;;4.23;3.10;;;;;;;17.02;42.01;100409.44;;;;-56
2021/01/26 07:41:44;;;;;;;4.10;3.43;;;;;;;16.88;41.85;100415.93;;;;-59
2021/01/26 07:44:44;;;;;;;4.15;3.47;;;;;;;16.84;41.58;100419.18;;;;-58
2021/01/26 07:47:44;;;;;;;5.15;3.41;;;;;;;16.77;41.56;100419.37;;;;-54
2021/01/26 07:50:44;;;;;;;4.95;3.30;;;;;;;16.91;42.33;100428.52;;;;-54
2021/01/26 07:53:44;;;;;;;3.81;2.95;;;;;;;17.00;42.69;100429.81;;;;-54
2021/01/26 07:56:44;;;;;;;4.39;2.60;;;;;;;17.08;42.89;100424.35;;;;-54
2021/01/26 07:59:44;;;;;;;3.32;2.57;;;;;;;17.15;43.07;100437.33;;;;-54
2021/01/26 08:02:43;;;;;;;2.95;2.30;;;;;;;17.20;43.21;100432.12;;;;-55
2021/01/26 08:05:44;;;;;;;2.99;2.18;;;;;;;17.24;43.28;100435.54;;;;-54
2021/01/26 08:08:44;;;;;;;2.89;2.19;;;;;;;17.28;43.31;100436.63;;;;-55
2021/01/26 08:11:44;;;;;;;2.85;2.10;;;;;;;17.31;43.28;100436.69;;;;-54
2021/01/26 08:14:44;;;;;;;2.95;2.15;;;;;;;17.34;43.40;100437.20;;;;-54
2021/01/26 08:17:44;;;;;;;3.81;2.09;;;;;;;17.37;43.38;100431.27;;;;-55
2021/01/26 08:20:44;;;;;;;2.51;2.01;;;;;;;17.38;43.37;100434.02;;;;-51
2021/01/26 08:23:44;;;;;;;2.63;1.95;;;;;;;17.40;43.45;100426.36;;;;-52
2021/01/26 08:26:44;;;;;;;2.84;1.95;;;;;;;17.43;43.47;100445.02;;;;-52
2021/01/26 08:29:44;;;;;;;2.03;1.83;;;;;;;17.43;43.58;100448.20;;;;-51
2021/01/26 08:32:44;;;;;;;1.93;1.73;;;;;;;17.44;43.56;100449.02;;;;-52
2021/01/26 08:35:44;;;;;;;2.33;1.97;;;;;;;17.45;43.51;100462.55;;;;-51
2021/01/26 08:38:44;;;;;;;2.17;1.91;;;;;;;17.46;43.53;100464.44;;;;-51
2021/01/26 08:41:44;;;;;;;2.15;1.87;;;;;;;17.46;43.59;100469.95;;;;-51
2021/01/26 08:44:44;;;;;;;1.99;1.75;;;;;;;17.46;43.60;100478.13;;;;-51
2021/01/26 08:47:44;;;;;;;2.24;1.90;;;;;;;17.47;43.49;100482.59;;;;-51
2021/01/26 08:50:46;;;;;;;4.53;1.92;;;;;;;17.46;43.44;100481.86;;;;-52
2021/01/26 08:53:44;;;;;;;3.52;1.83;;;;;;;17.47;43.55;100488.26;;;;-52
2021/01/26 08:56:44;;;;;;;2.19;1.80;;;;;;;17.46;43.61;100489.31;;;;-51
2021/01/26 08:59:44;;;;;;;2.57;1.80;;;;;;;17.47;43.61;100490.72;;;;-51
2021/01/26 09:02:44;;;;;;;2.47;1.72;;;;;;;17.48;43.88;100500.20;;;;-57
2021/01/26 09:05:44;;;;;;;4.22;1.85;;;;;;;17.51;44.73;100514.16;;;;-53
2021/01/26 09:08:44;;;;;;;3.57;2.01;;;;;;;17.55;44.50;100505.64;;;;-50
2021/01/26 09:11:44;;;;;;;5.15;1.70;;;;;;;17.58;45.15;100511.45;;;;-49
2021/01/26 09:14:44;;;;;;;3.64;1.80;;;;;;;17.61;45.16;100511.56;;;;-50
2021/01/26 09:17:44;;;;;;;2.04;1.80;;;;;;;17.66;45.41;100516.84;;;;-52
2021/01/26 09:20:44;;;;;;;4.00;1.70;;;;;;;17.68;45.55;100519.31;;;;-59
2021/01/26 09:23:44;;;;;;;2.81;1.69;;;;;;;17.71;45.50;100514.15;;;;-51
2021/01/26 09:26:44;;;;;;;3.05;1.69;;;;;;;17.72;45.61;100512.16;;;;-51
2021/01/26 09:29:44;;;;;;;1.68;1.52;;;;;;;17.75;45.66;100519.56;;;;-51
2021/01/26 09:32:44;;;;;;;2.47;1.67;;;;;;;17.78;45.43;100516.27;;;;-51
2021/01/26 09:35:44;;;;;;;6.21;1.77;;;;;;;17.82;45.46;100528.16;;;;-57
2021/01/26 09:38:45;;;;;;;2.33;1.63;;;;;;;17.86;45.50;100524.84;;;;-56
2021/01/26 09:41:44;;;;;;;2.09;1.59;;;;;;;17.90;45.34;100531.22;;;;-53
2021/01/26 09:44:43;;;;;;;3.93;1.79;;;;;;;17.95;45.43;100539.71;;;;-55
2021/01/26 09:47:44;;;;;;;3.19;1.59;;;;;;;17.98;45.34;100540.50;;;;-58
2021/01/26 09:50:44;;;;;;;4.62;1.78;;;;;;;18.01;45.40;100544.45;;;;-52
2021/01/26 09:53:44;;;;;;;2.13;1.54;;;;;;;18.05;45.37;100546.17;;;;-51
2021/01/26 09:56:44;;;;;;;1.52;1.41;;;;;;;18.08;45.19;100547.62;;;;-51
2021/01/26 09:59:44;;;;;;;1.59;1.47;;;;;;;18.11;45.05;100552.75;;;;-52
2021/01/26 10:02:44;;;;;;;1.85;1.51;;;;;;;18.15;45.29;100549.80;;;;-47
2021/01/26 10:05:44;;;;;;;2.06;1.50;;;;;;;18.20;45.42;100553.21;;;;-52
2021/01/26 10:08:43;;;;;;;1.59;1.49;;;;;;;18.24;45.05;100548.78;;;;-58
2021/01/26 10:11:44;;;;;;;2.59;1.59;;;;;;;18.27;44.86;100558.81;;;;-55
2021/01/26 10:14:44;;;;;;;3.29;1.60;;;;;;;18.32;45.14;100560.73;;;;-49
2021/01/26 10:17:44;;;;;;;2.61;1.59;;;;;;;18.37;45.19;100565.76;;;;-58
2021/01/26 10:20:44;;;;;;;2.37;1.51;;;;;;;18.40;45.12;100562.78;;;;-52
2021/01/26 10:23:43;;;;;;;1.93;1.43;;;;;;;18.43;45.23;100573.76;;;;-46
2021/01/26 10:26:44;;;;;;;1.72;1.50;;;;;;;18.46;45.35;100576.89;;;;-54
2021/01/26 10:29:44;;;;;;;1.95;1.51;;;;;;;18.48;45.17;100586.41;;;;-57
2021/01/26 10:32:44;;;;;;;2.22;1.63;;;;;;;18.52;45.04;100594.91;;;;-53
2021/01/26 10:35:46;;;;;;;1.71;1.47;;;;;;;18.55;45.22;100595.58;;;;-52
2021/01/26 10:38:44;;;;;;;1.67;1.40;;;;;;;18.58;45.10;100604.48;;;;-52
2021/01/26 10:41:43;;;;;;;2.87;1.42;;;;;;;18.61;44.82;100607.34;;;;-49
2021/01/26 10:44:44;;;;;;;1.61;1.50;;;;;;;18.67;45.26;100606.61;;;;-51
2021/01/26 10:47:44;;;;;;;3.06;1.54;;;;;;;18.66;45.10;100605.06;;;;-53
2021/01/26 10:50:44;;;;;;;1.60;1.50;;;;;;;18.69;45.22;100607.12;;;;-59
2021/01/26 10:53:44;;;;;;;1.72;1.40;;;;;;;18.72;45.10;100604.49;;;;-45
2021/01/26 10:56:44;;;;;;;3.56;1.58;;;;;;;18.77;45.19;100594.39;;;;-54
2021/01/26 10:59:44;;;;;;;2.43;1.42;;;;;;;18.77;44.62;100590.89;;;;-53
2021/01/26 11:02:44;;;;;;;3.61;1.63;;;;;;;18.75;44.53;100599.80;;;;-52
2021/01/26 11:05:43;;;;;;;1.67;1.41;;;;;;;18.75;44.46;100603.95;;;;-61
2021/01/26 11:08:47;;;;;;;3.47;1.89;;;;;;;18.67;43.35;100602.63;;;;-49
2021/01/26 11:11:44;;;;;;;5.43;1.69;;;;;;;18.66;43.58;100597.35;;;;-50
2021/01/26 11:14:44;;;;;;;1.67;1.50;;;;;;;18.68;43.49;100596.41;;;;-45
2021/01/26 11:17:44;;;;;;;1.71;1.30;;;;;;;18.70;43.74;100591.88;;;;-45
2021/01/26 11:20:44;;;;;;;1.63;1.48;;;;;;;18.72;43.81;100591.39;;;;-45
2021/01/26 11:23:44;;;;;;;1.95;1.59;;;;;;;18.73;43.76;100589.80;;;;-48
2021/01/26 11:26:44;;;;;;;3.13;1.51;;;;;;;18.74;43.79;100594.13;;;;-44
2021/01/26 11:29:43;;;;;;;1.91;1.43;;;;;;;18.76;43.81;100595.02;;;;-45
2021/01/26 11:32:43;;;;;;;1.71;1.49;;;;;;;18.77;43.78;100597.39;;;;-50
2021/01/26 11:35:44;;;;;;;2.25;1.46;;;;;;;18.78;43.82;100596.84;;;;-49
2021/01/26 11:38:43;;;;;;;1.77;1.43;;;;;;;18.80;43.78;100599.42;;;;-57
2021/01/26 11:41:44;;;;;;;3.33;1.55;;;;;;;18.81;43.84;100598.20;;;;-48
2021/01/26 11:44:44;;;;;;;1.65;1.39;;;;;;;18.83;43.84;100598.22;;;;-48
2021/01/26 11:47:43;;;;;;;2.14;1.39;;;;;;;18.84;43.79;100595.66;;;;-55
2021/01/26 11:50:44;;;;;;;1.65;1.32;;;;;;;18.87;43.78;100593.97;;;;-56
2021/01/26 11:53:44;;;;;;;1.40;1.30;;;;;;;18.88;43.80;100582.92;;;;-56
2021/01/26 11:56:43;;;;;;;2.00;1.41;;;;;;;18.89;43.80;100595.37;;;;-55
2021/01/26 11:59:44;;;;;;;1.91;1.30;;;;;;;18.90;43.74;100597.31;;;;-50
2021/01/26 12:02:44;;;;;;;2.06;1.53;;;;;;;18.92;43.79;100603.27;;;;-49
2021/01/26 12:05:44;;;;;;;1.90;1.49;;;;;;;18.93;43.77;100607.36;;;;-45
2021/01/26 12:08:44;;;;;;;1.47;1.37;;;;;;;18.94;43.76;100605.40;;;;-45
2021/01/26 12:11:43;;;;;;;2.05;1.34;;;;;;;18.96;43.78;100611.19;;;;-45
2021/01/26 12:14:44;;;;;;;2.02;1.40;;;;;;;18.96;43.72;100609.89;;;;-45
2021/01/26 12:17:44;;;;;;;2.22;1.30;;;;;;;18.98;43.79;100613.33;;;;-45
2021/01/26 12:20:44;;;;;;;1.40;1.30;;;;;;;19.00;43.76;100623.50;;;;-45
2021/01/26 12:23:48;;;;;;;1.70;1.41;;;;;;;19.00;43.73;100621.88;;;;-45
2021/01/26 12:26:44;;;;;;;1.40;1.29;;;;;;;19.02;43.73;100619.14;;;;-56
2021/01/26 12:29:44;;;;;;;1.44;1.33;;;;;;;19.03;43.71;100623.63;;;;-56
2021/01/26 12:32:44;;;;;;;1.33;1.23;;;;;;;19.04;43.76;100615.66;;;;-49
2021/01/26 12:35:43;;;;;;;1.23;1.11;;;;;;;19.05;43.75;100622.84;;;;-48
2021/01/26 12:38:43;;;;;;;1.43;1.30;;;;;;;19.07;43.71;100625.11;;;;-50
2021/01/26 12:41:44;;;;;;;1.46;1.26;;;;;;;19.08;43.69;100622.12;;;;-49
2021/01/26 12:44:43;;;;;;;1.40;1.30;;;;;;;19.08;43.71;100624.23;;;;-50
2021/01/26 12:47:44;;;;;;;1.40;1.30;;;;;;;19.10;43.68;100622.63;;;;-49
2021/01/26 12:50:46;;;;;;;1.90;1.35;;;;;;;19.10;43.73;100618.73;;;;-45
2021/01/26 12:53:43;;;;;;;1.46;1.35;;;;;;;19.12;43.68;100617.78;;;;-45
2021/01/26 12:56:44;;;;;;;4.17;1.61;;;;;;;19.11;42.89;100622.71;;;;-45
2021/01/26 12:59:44;;;;;;;3.53;1.69;;;;;;;19.06;43.17;100618.12;;;;-48
2021/01/26 13:02:43;;;;;;;5.15;1.53;;;;;;;19.08;42.59;100627.08;;;;-48
2021/01/26 13:05:44;;;;;;;4.64;1.59;;;;;;;19.12;43.19;100627.28;;;;-48
2021/01/26 13:08:43;;;;;;;5.71;1.63;;;;;;;19.14;43.39;100633.64;;;;-51
2021/01/26 13:11:43;;;;;;;3.21;1.52;;;;;;;19.17;43.50;100630.69;;;;-54
2021/01/26 13:14:44;;;;;;;4.53;1.51;;;;;;;19.21;43.75;100635.09;;;;-55
2021/01/26 13:17:43;;;;;;;4.11;1.42;;;;;;;19.25;43.96;100636.27;;;;-47
2021/01/26 13:20:44;;;;;;;3.25;1.50;;;;;;;19.28;44.05;100630.77;;;;-53
2021/01/26 13:23:43;;;;;;;2.30;1.50;;;;;;;19.33;44.16;100636.51;;;;-50
2021/01/26 13:26:43;;;;;;;3.44;1.46;;;;;;;19.37;44.18;100635.42;;;;-54
2021/01/26 13:29:44;;;;;;;5.31;1.59;;;;;;;19.38;43.92;100633.81;;;;-53
2021/01/26 13:32:43;;;;;;;4.71;1.60;;;;;;;19.38;43.77;100642.27;;;;-54
2021/01/26 13:35:43;;;;;;;3.85;1.51;;;;;;;19.38;43.64;100639.15;;;;-53
2021/01/26 13:38:43;;;;;;;4.18;1.51;;;;;;;19.40;43.75;100639.58;;;;-56
2021/01/26 13:41:48;;;;;;;5.26;1.54;;;;;;;19.41;43.85;100642.69;;;;-54
2021/01/26 13:44:47;;;;;;;5.13;2.07;;;;;;;19.38;42.95;100655.56;;;;-50
2021/01/26 13:47:43;;;;;;;4.23;1.77;;;;;;;19.39;43.21;100665.75;;;;-50
2021/01/26 13:50:43;;;;;;;5.74;1.87;;;;;;;19.42;43.35;100660.73;;;;-50
2021/01/26 13:53:43;;;;;;;4.47;1.50;;;;;;;19.43;43.13;100666.03;;;;-51
2021/01/26 13:56:43;;;;;;;6.67;1.77;;;;;;;19.45;43.24;100659.72;;;;-45
2021/01/26 13:59:44;;;;;;;4.59;1.57;;;;;;;19.47;43.58;100653.80;;;;-52
2021/01/26 14:02:43;;;;;;;2.65;1.65;;;;;;;19.53;43.86;100663.78;;;;-53
2021/01/26 14:05:44;;;;;;;4.13;1.59;;;;;;;19.55;43.90;100665.72;;;;-46
2021/01/26 14:08:43;;;;;;;2.81;1.80;;;;;;;19.55;43.94;100665.99;;;;-48
2021/01/26 14:11:43;;;;;;;2.89;1.59;;;;;;;19.58;44.08;100671.05;;;;-59
2021/01/26 14:14:44;;;;;;;2.51;1.47;;;;;;;19.60;43.95;100672.13;;;;-59
2021/01/26 14:17:43;;;;;;;3.09;1.52;;;;;;;19.63;44.08;100672.73;;;;-54
2021/01/26 14:20:44;;;;;;;5.51;1.72;;;;;;;19.64;43.85;100666.63;;;;-54
2021/01/26 14:23:43;;;;;;;5.91;1.71;;;;;;;19.66;43.65;100669.91;;;;-55
2021/01/26 14:26:43;;;;;;;3.32;1.47;;;;;;;19.66;43.62;100670.55;;;;-51
2021/01/26 14:29:44;;;;;;;3.25;1.58;;;;;;;19.65;43.76;100676.47;;;;-45
2021/01/26 14:32:43;;;;;;;3.86;1.49;;;;;;;19.66;43.99;100676.08;;;;-56
2021/01/26 14:35:43;;;;;;;3.21;1.61;;;;;;;19.69;44.23;100680.84;;;;-51
2021/01/26 14:38:44;;;;;;;5.90;1.77;;;;;;;19.70;44.20;100684.34;;;;-55
2021/01/26 14:41:49;;;;;;;2.46;1.45;;;;;;;19.72;44.35;100678.13;;;;-45
2021/01/26 14:44:43;;;;;;;1.98;1.41;;;;;;;19.75;44.40;100686.02;;;;-58
2021/01/26 14:47:43;;;;;;;2.36;1.50;;;;;;;19.76;44.84;100689.06;;;;-51
2021/01/26 14:50:44;;;;;;;2.10;1.53;;;;;;;19.76;44.43;100692.80;;;;-44
2021/01/26 14:53:43;;;;;;;3.09;1.50;;;;;;;19.78;44.60;100699.89;;;;-51
2021/01/26 14:56:44;;;;;;;2.93;1.40;;;;;;;19.79;44.50;100695.73;;;;-56
2021/01/26 14:59:44;;;;;;;2.61;1.52;;;;;;;19.80;44.38;100700.56;;;;-52
2021/01/26 15:03:03;;;;;;;2.97;1.43;;;;;;;19.81;44.33;100703.97;;;;-45
2021/01/26 15:05:44;;;;;;;1.92;1.50;;;;;;;19.82;44.37;100704.23;;;;-51
2021/01/26 15:08:43;;;;;;;3.53;1.53;;;;;;;19.85;44.35;100707.34;;;;-51
2021/01/26 15:11:43;;;;;;;3.16;1.48;;;;;;;19.83;44.27;100704.23;;;;-57
2021/01/26 15:14:43;;;;;;;3.31;1.55;;;;;;;19.83;44.04;100710.33;;;;-49
2021/01/26 15:17:43;;;;;;;1.99;1.43;;;;;;;19.82;43.87;100710.95;;;;-58
2021/01/26 15:20:43;;;;;;;3.35;1.49;;;;;;;19.77;43.66;100717.84;;;;-57
2021/01/26 15:23:44;;;;;;;2.26;1.68;;;;;;;19.70;42.57;100722.41;;;;-55
2021/01/26 15:26:43;;;;;;;2.74;1.80;;;;;;;19.66;42.57;100722.42;;;;-56
2021/01/26 15:29:43;;;;;;;2.51;1.69;;;;;;;19.65;42.73;100722.81;;;;-56
2021/01/26 15:32:43;;;;;;;5.87;1.61;;;;;;;19.67;42.71;100723.89;;;;-55
2021/01/26 15:35:43;;;;;;;3.31;1.56;;;;;;;19.67;42.87;100726.81;;;;-55
2021/01/26 15:38:43;;;;;;;4.10;1.51;;;;;;;19.69;42.94;100726.42;;;;-51
2021/01/26 15:41:43;;;;;;;1.93;1.50;;;;;;;19.71;42.95;100728.52;;;;-51
2021/01/26 15:44:43;;;;;;;1.94;1.50;;;;;;;19.71;42.98;100723.15;;;;-51
2021/01/26 15:47:44;;;;;;;1.71;1.47;;;;;;;19.70;43.04;100719.81;;;;-51
2021/01/26 15:50:43;;;;;;;16.01;1.97;;;;;;;19.71;43.26;100719.41;;;;-52
2021/01/26 15:53:43;;;;;;;9.69;1.99;;;;;;;19.75;43.34;100726.11;;;;-51
2021/01/26 15:56:43;;;;;;;6.99;1.85;;;;;;;19.75;43.47;100731.88;;;;-48
2021/01/26 15:59:43;;;;;;;5.43;1.70;;;;;;;19.77;43.73;100741.66;;;;-52
2021/01/26 16:02:43;;;;;;;3.71;1.69;;;;;;;19.79;43.67;100743.72;;;;-47
2021/01/26 16:05:43;;;;;;;3.06;1.48;;;;;;;19.81;43.77;100755.77;;;;-51
2021/01/26 16:08:43;;;;;;;8.49;1.46;;;;;;;19.82;43.73;100758.73;;;;-51
2021/01/26 16:11:43;;;;;;;3.70;1.50;;;;;;;19.83;43.81;100757.26;;;;-56
2021/01/26 16:14:43;;;;;;;3.57;1.47;;;;;;;19.84;43.85;100767.45;;;;-58
2021/01/26 16:17:43;;;;;;;5.07;1.68;;;;;;;19.86;43.94;100775.44;;;;-59
2021/01/26 16:20:43;;;;;;;4.35;1.43;;;;;;;19.86;43.88;100775.58;;;;-61
2021/01/26 16:23:43;;;;;;;4.18;1.50;;;;;;;19.87;43.87;100781.62;;;;-60
2021/01/26 16:26:43;;;;;;;2.53;1.52;;;;;;;19.88;43.86;100780.80;;;;-57
2021/01/26 16:29:43;;;;;;;2.49;1.57;;;;;;;19.90;43.98;100783.58;;;;-57
2021/01/26 16:32:43;;;;;;;2.34;1.55;;;;;;;19.89;43.96;100784.73;;;;-52
2021/01/26 16:35:43;;;;;;;2.29;1.50;;;;;;;19.90;43.99;100790.61;;;;-50
2021/01/26 16:38:43;;;;;;;2.83;1.53;;;;;;;19.92;44.00;100791.82;;;;-52
2021/01/26 16:41:43;;;;;;;2.33;1.40;;;;;;;19.94;44.02;100793.58;;;;-51
2021/01/26 16:44:44;;;;;;;2.03;1.43;;;;;;;19.94;44.07;100794.12;;;;-49
2021/01/26 16:47:43;;;;;;;2.35;1.49;;;;;;;19.96;43.99;100793.65;;;;-46
2021/01/26 16:50:44;;;;;;;2.47;1.42;;;;;;;19.94;44.02;100793.91;;;;-46
2021/01/26 16:53:43;;;;;;;2.53;1.45;;;;;;;19.94;44.12;100795.58;;;;-48
2021/01/26 16:56:45;;;;;;;1.73;1.37;;;;;;;19.96;44.02;100798.94;;;;-50